sensor_id;sensor_type;location;lat;lon;timestamp;P1;durP1;ratioP1;P2;durP2;ratioP2
24451;SDS011;13350;50.984;5.822;2023-05-16T00:00:08;2.85;;;1.27;;
24451;SDS011;13350;50.984;5.822;2023-05-16T00:02:38;2.33;;;1.27;;
24451;SDS011;13350;50.984;5.822;2023-05-16T00:05:05;4.63;;;1.42;;
24451;SDS011;13350;50.984;5.822;2023-05-16T00:07:35;3.10;;;1.30;;
24451;SDS011;13350;50.984;5.822;2023-05-16T00:10:02;3.08;;;1.30;;
24451;SDS011;13350;50.984;5.822;2023-05-16T00:12:29;3.97;;;1.33;;
24451;SDS011;13350;50.984;5.822;2023-05-16T00:14:57;3.20;;;1.30;;
24451;SDS011;13350;50.984;5.822;2023-05-16T00:17:24;4.15;;;1.42;;
24451;SDS011;13350;50.984;5.822;2023-05-16T00:19:54;2.80;;;1.30;;
24451;SDS011;13350;50.984;5.822;2023-05-16T00:22:24;2.03;;;1.20;;
24451;SDS011;13350;50.984;5.822;2023-05-16T00:24:51;3.10;;;1.40;;
24451;SDS011;13350;50.984;5.822;2023-05-16T00:27:18;4.78;;;1.60;;
24451;SDS011;13350;50.984;5.822;2023-05-16T00:29:45;3.10;;;1.40;;
24451;SDS011;13350;50.984;5.822;2023-05-16T00:32:12;6.53;;;1.70;;
24451;SDS011;13350;50.984;5.822;2023-05-16T00:34:40;4.63;;;1.67;;
24451;SDS011;13350;50.984;5.822;2023-05-16T00:37:08;5.90;;;1.50;;
24451;SDS011;13350;50.984;5.822;2023-05-16T00:39:35;4.50;;;1.35;;
24451;SDS011;13350;50.984;5.822;2023-05-16T00:42:03;6.50;;;1.80;;
24451;SDS011;13350;50.984;5.822;2023-05-16T00:44:30;5.22;;;1.52;;
24451;SDS011;13350;50.984;5.822;2023-05-16T00:46:58;4.68;;;1.23;;
24451;SDS011;13350;50.984;5.822;2023-05-16T00:49:26;3.65;;;1.40;;
24451;SDS011;13350;50.984;5.822;2023-05-16T00:51:54;4.93;;;1.90;;
24451;SDS011;13350;50.984;5.822;2023-05-16T00:54:24;5.20;;;2.00;;
24451;SDS011;13350;50.984;5.822;2023-05-16T00:56:53;4.55;;;1.80;;
24451;SDS011;13350;50.984;5.822;2023-05-16T00:59:21;10.65;;;2.17;;
24451;SDS011;13350;50.984;5.822;2023-05-16T01:01:48;3.80;;;1.45;;
24451;SDS011;13350;50.984;5.822;2023-05-16T01:04:16;4.40;;;1.90;;
24451;SDS011;13350;50.984;5.822;2023-05-16T01:06:43;4.65;;;1.50;;
24451;SDS011;13350;50.984;5.822;2023-05-16T01:09:11;4.75;;;1.70;;
24451;SDS011;13350;50.984;5.822;2023-05-16T01:11:42;2.97;;;1.30;;
24451;SDS011;13350;50.984;5.822;2023-05-16T01:14:16;5.20;;;1.70;;
24451;SDS011;13350;50.984;5.822;2023-05-16T01:16:49;5.05;;;1.80;;
24451;SDS011;13350;50.984;5.822;2023-05-16T01:19:23;4.25;;;1.20;;
24451;SDS011;13350;50.984;5.822;2023-05-16T01:22:05;5.57;;;2.40;;
24451;SDS011;13350;50.984;5.822;2023-05-16T01:24:43;6.15;;;1.77;;
24451;SDS011;13350;50.984;5.822;2023-05-16T01:27:23;3.80;;;1.40;;
24451;SDS011;13350;50.984;5.822;2023-05-16T01:29:54;5.43;;;1.50;;
24451;SDS011;13350;50.984;5.822;2023-05-16T01:32:21;4.22;;;1.70;;
24451;SDS011;13350;50.984;5.822;2023-05-16T01:34:49;6.55;;;2.33;;
24451;SDS011;13350;50.984;5.822;2023-05-16T01:37:17;3.53;;;2.08;;
24451;SDS011;13350;50.984;5.822;2023-05-16T01:39:50;2.80;;;1.30;;
24451;SDS011;13350;50.984;5.822;2023-05-16T01:42:24;4.65;;;1.52;;
24451;SDS011;13350;50.984;5.822;2023-05-16T01:44:58;4.47;;;2.30;;
24451;SDS011;13350;50.984;5.822;2023-05-16T01:47:31;5.10;;;1.80;;
24451;SDS011;13350;50.984;5.822;2023-05-16T01:50:02;5.45;;;1.92;;
24451;SDS011;13350;50.984;5.822;2023-05-16T01:52:34;5.53;;;1.88;;
24451;SDS011;13350;50.984;5.822;2023-05-16T01:55:08;5.07;;;1.50;;
24451;SDS011;13350;50.984;5.822;2023-05-16T01:57:42;8.27;;;2.65;;
24451;SDS011;13350;50.984;5.822;2023-05-16T02:00:11;7.75;;;2.28;;
24451;SDS011;13350;50.984;5.822;2023-05-16T02:02:39;8.55;;;2.28;;
24451;SDS011;13350;50.984;5.822;2023-05-16T02:05:07;4.82;;;1.83;;
24451;SDS011;13350;50.984;5.822;2023-05-16T02:07:34;6.60;;;1.98;;
24451;SDS011;13350;50.984;5.822;2023-05-16T02:10:01;7.28;;;2.10;;
24451;SDS011;13350;50.984;5.822;2023-05-16T02:12:29;7.32;;;2.42;;
24451;SDS011;13350;50.984;5.822;2023-05-16T02:14:57;5.88;;;1.77;;
24451;SDS011;13350;50.984;5.822;2023-05-16T02:17:24;7.65;;;1.75;;
24451;SDS011;13350;50.984;5.822;2023-05-16T02:19:52;8.38;;;1.95;;
24451;SDS011;13350;50.984;5.822;2023-05-16T02:22:19;5.70;;;1.75;;
24451;SDS011;13350;50.984;5.822;2023-05-16T02:24:46;4.95;;;1.90;;
24451;SDS011;13350;50.984;5.822;2023-05-16T02:27:13;3.78;;;1.60;;
24451;SDS011;13350;50.984;5.822;2023-05-16T02:29:40;9.48;;;2.38;;
24451;SDS011;13350;50.984;5.822;2023-05-16T02:32:09;9.80;;;2.55;;
24451;SDS011;13350;50.984;5.822;2023-05-16T02:34:36;8.70;;;2.60;;
24451;SDS011;13350;50.984;5.822;2023-05-16T02:37:03;8.30;;;2.38;;
24451;SDS011;13350;50.984;5.822;2023-05-16T02:39:31;11.10;;;3.03;;
24451;SDS011;13350;50.984;5.822;2023-05-16T02:41:58;10.85;;;2.75;;
24451;SDS011;13350;50.984;5.822;2023-05-16T02:44:25;9.13;;;2.10;;
24451;SDS011;13350;50.984;5.822;2023-05-16T02:46:52;8.45;;;2.90;;
24451;SDS011;13350;50.984;5.822;2023-05-16T02:49:21;8.68;;;2.70;;
24451;SDS011;13350;50.984;5.822;2023-05-16T02:51:48;9.38;;;2.70;;
24451;SDS011;13350;50.984;5.822;2023-05-16T02:54:15;10.90;;;2.05;;
24451;SDS011;13350;50.984;5.822;2023-05-16T02:56:43;7.55;;;2.30;;
24451;SDS011;13350;50.984;5.822;2023-05-16T02:59:10;10.35;;;2.95;;
24451;SDS011;13350;50.984;5.822;2023-05-16T03:01:38;6.45;;;2.20;;
24451;SDS011;13350;50.984;5.822;2023-05-16T03:04:05;8.65;;;2.50;;
24451;SDS011;13350;50.984;5.822;2023-05-16T03:06:34;9.18;;;2.60;;
24451;SDS011;13350;50.984;5.822;2023-05-16T03:09:01;9.50;;;1.95;;
24451;SDS011;13350;50.984;5.822;2023-05-16T03:11:28;8.55;;;1.67;;
24451;SDS011;13350;50.984;5.822;2023-05-16T03:13:56;9.98;;;2.22;;
24451;SDS011;13350;50.984;5.822;2023-05-16T03:16:24;11.10;;;2.47;;
24451;SDS011;13350;50.984;5.822;2023-05-16T03:18:51;12.77;;;3.20;;
24451;SDS011;13350;50.984;5.822;2023-05-16T03:21:18;7.97;;;2.25;;
24451;SDS011;13350;50.984;5.822;2023-05-16T03:23:47;8.10;;;2.30;;
24451;SDS011;13350;50.984;5.822;2023-05-16T03:26:14;8.63;;;2.28;;
24451;SDS011;13350;50.984;5.822;2023-05-16T03:28:42;14.13;;;2.30;;
24451;SDS011;13350;50.984;5.822;2023-05-16T03:31:09;9.18;;;2.38;;
24451;SDS011;13350;50.984;5.822;2023-05-16T03:33:36;11.40;;;2.40;;
24451;SDS011;13350;50.984;5.822;2023-05-16T03:36:03;10.88;;;2.38;;
24451;SDS011;13350;50.984;5.822;2023-05-16T03:38:31;12.00;;;3.60;;
24451;SDS011;13350;50.984;5.822;2023-05-16T03:41:00;14.95;;;3.17;;
24451;SDS011;13350;50.984;5.822;2023-05-16T03:43:27;12.68;;;2.60;;
24451;SDS011;13350;50.984;5.822;2023-05-16T03:45:54;11.77;;;2.90;;
24451;SDS011;13350;50.984;5.822;2023-05-16T03:48:21;11.43;;;2.90;;
24451;SDS011;13350;50.984;5.822;2023-05-16T03:50:49;10.68;;;3.08;;
24451;SDS011;13350;50.984;5.822;2023-05-16T03:53:16;8.82;;;2.47;;
24451;SDS011;13350;50.984;5.822;2023-05-16T03:55:44;10.88;;;2.70;;
24451;SDS011;13350;50.984;5.822;2023-05-16T03:58:12;12.13;;;2.88;;
24451;SDS011;13350;50.984;5.822;2023-05-16T04:00:40;9.90;;;2.50;;
24451;SDS011;13350;50.984;5.822;2023-05-16T04:03:07;8.75;;;2.25;;
24451;SDS011;13350;50.984;5.822;2023-05-16T04:05:35;6.05;;;1.92;;
24451;SDS011;13350;50.984;5.822;2023-05-16T04:08:02;8.52;;;1.67;;
24451;SDS011;13350;50.984;5.822;2023-05-16T04:10:30;10.30;;;2.22;;
24451;SDS011;13350;50.984;5.822;2023-05-16T04:12:57;9.57;;;4.20;;
24451;SDS011;13350;50.984;5.822;2023-05-16T04:15:25;9.15;;;2.50;;
24451;SDS011;13350;50.984;5.822;2023-05-16T04:17:53;8.50;;;2.33;;
24451;SDS011;13350;50.984;5.822;2023-05-16T04:20:20;10.18;;;2.50;;
24451;SDS011;13350;50.984;5.822;2023-05-16T04:22:47;9.32;;;1.83;;
24451;SDS011;13350;50.984;5.822;2023-05-16T04:25:14;8.80;;;2.13;;
24451;SDS011;13350;50.984;5.822;2023-05-16T04:27:42;7.45;;;2.45;;
24451;SDS011;13350;50.984;5.822;2023-05-16T04:30:10;8.45;;;2.58;;
24451;SDS011;13350;50.984;5.822;2023-05-16T04:32:39;9.57;;;2.13;;
24451;SDS011;13350;50.984;5.822;2023-05-16T04:35:07;9.80;;;2.53;;
24451;SDS011;13350;50.984;5.822;2023-05-16T04:37:34;7.63;;;1.92;;
24451;SDS011;13350;50.984;5.822;2023-05-16T04:40:02;9.60;;;2.08;;
24451;SDS011;13350;50.984;5.822;2023-05-16T04:42:30;6.18;;;1.75;;
24451;SDS011;13350;50.984;5.822;2023-05-16T04:44:57;7.28;;;1.77;;
24451;SDS011;13350;50.984;5.822;2023-05-16T04:47:24;7.57;;;1.85;;
24451;SDS011;13350;50.984;5.822;2023-05-16T04:49:53;8.80;;;2.10;;
24451;SDS011;13350;50.984;5.822;2023-05-16T04:52:20;7.97;;;1.65;;
24451;SDS011;13350;50.984;5.822;2023-05-16T04:54:49;13.43;;;2.45;;
24451;SDS011;13350;50.984;5.822;2023-05-16T04:57:16;11.90;;;1.85;;
24451;SDS011;13350;50.984;5.822;2023-05-16T04:59:43;9.40;;;2.08;;
24451;SDS011;13350;50.984;5.822;2023-05-16T05:02:10;9.73;;;1.90;;
24451;SDS011;13350;50.984;5.822;2023-05-16T05:04:38;8.88;;;2.40;;
24451;SDS011;13350;50.984;5.822;2023-05-16T05:07:07;5.82;;;1.90;;
24451;SDS011;13350;50.984;5.822;2023-05-16T05:09:34;8.57;;;1.90;;
24451;SDS011;13350;50.984;5.822;2023-05-16T05:12:01;5.78;;;1.88;;
24451;SDS011;13350;50.984;5.822;2023-05-16T05:14:28;7.30;;;1.67;;
24451;SDS011;13350;50.984;5.822;2023-05-16T05:16:56;9.13;;;1.83;;
24451;SDS011;13350;50.984;5.822;2023-05-16T05:19:23;5.07;;;1.40;;
24451;SDS011;13350;50.984;5.822;2023-05-16T05:21:50;6.70;;;1.52;;
24451;SDS011;13350;50.984;5.822;2023-05-16T05:24:18;7.40;;;2.00;;
24451;SDS011;13350;50.984;5.822;2023-05-16T05:26:45;7.38;;;2.05;;
24451;SDS011;13350;50.984;5.822;2023-05-16T05:29:13;8.50;;;1.88;;
24451;SDS011;13350;50.984;5.822;2023-05-16T05:31:40;7.00;;;1.35;;
24451;SDS011;13350;50.984;5.822;2023-05-16T05:34:07;9.30;;;2.17;;
24451;SDS011;13350;50.984;5.822;2023-05-16T05:36:34;9.23;;;2.30;;
24451;SDS011;13350;50.984;5.822;2023-05-16T05:39:01;13.23;;;2.13;;
24451;SDS011;13350;50.984;5.822;2023-05-16T05:41:30;4.72;;;1.50;;
24451;SDS011;13350;50.984;5.822;2023-05-16T05:43:57;6.47;;;1.98;;
24451;SDS011;13350;50.984;5.822;2023-05-16T05:46:24;8.02;;;1.90;;
24451;SDS011;13350;50.984;5.822;2023-05-16T05:48:52;9.63;;;1.95;;
24451;SDS011;13350;50.984;5.822;2023-05-16T05:51:19;6.43;;;1.77;;
24451;SDS011;13350;50.984;5.822;2023-05-16T05:53:46;7.47;;;1.67;;
24451;SDS011;13350;50.984;5.822;2023-05-16T05:56:14;11.23;;;2.17;;
24451;SDS011;13350;50.984;5.822;2023-05-16T05:58:42;7.10;;;1.67;;
24451;SDS011;13350;50.984;5.822;2023-05-16T06:01:10;6.05;;;1.35;;
24451;SDS011;13350;50.984;5.822;2023-05-16T06:03:37;6.85;;;1.55;;
24451;SDS011;13350;50.984;5.822;2023-05-16T06:06:05;5.97;;;1.77;;
24451;SDS011;13350;50.984;5.822;2023-05-16T06:08:32;6.22;;;1.85;;
24451;SDS011;13350;50.984;5.822;2023-05-16T06:11:00;7.63;;;2.08;;
24451;SDS011;13350;50.984;5.822;2023-05-16T06:13:27;7.32;;;1.73;;
24451;SDS011;13350;50.984;5.822;2023-05-16T06:15:56;9.18;;;2.13;;
24451;SDS011;13350;50.984;5.822;2023-05-16T06:18:23;7.05;;;1.55;;
24451;SDS011;13350;50.984;5.822;2023-05-16T06:20:51;5.75;;;1.70;;
24451;SDS011;13350;50.984;5.822;2023-05-16T06:23:18;4.85;;;1.55;;
24451;SDS011;13350;50.984;5.822;2023-05-16T06:25:46;5.90;;;1.50;;
24451;SDS011;13350;50.984;5.822;2023-05-16T06:28:13;6.82;;;1.50;;
24451;SDS011;13350;50.984;5.822;2023-05-16T06:30:40;6.65;;;1.52;;
24451;SDS011;13350;50.984;5.822;2023-05-16T06:33:09;7.25;;;1.90;;
24451;SDS011;13350;50.984;5.822;2023-05-16T06:35:36;5.65;;;1.52;;
24451;SDS011;13350;50.984;5.822;2023-05-16T06:38:04;8.63;;;1.60;;
24451;SDS011;13350;50.984;5.822;2023-05-16T06:40:31;5.85;;;1.35;;
24451;SDS011;13350;50.984;5.822;2023-05-16T06:42:58;8.35;;;1.63;;
24451;SDS011;13350;50.984;5.822;2023-05-16T06:45:26;8.35;;;1.83;;
24451;SDS011;13350;50.984;5.822;2023-05-16T06:47:53;9.05;;;2.35;;
24451;SDS011;13350;50.984;5.822;2023-05-16T06:50:22;7.05;;;1.40;;
24451;SDS011;13350;50.984;5.822;2023-05-16T06:52:49;4.25;;;1.35;;
24451;SDS011;13350;50.984;5.822;2023-05-16T06:55:17;5.97;;;1.48;;
24451;SDS011;13350;50.984;5.822;2023-05-16T06:57:44;6.47;;;1.85;;
24451;SDS011;13350;50.984;5.822;2023-05-16T07:00:12;6.47;;;1.50;;
24451;SDS011;13350;50.984;5.822;2023-05-16T07:02:40;5.78;;;1.20;;
24451;SDS011;13350;50.984;5.822;2023-05-16T07:05:07;8.25;;;1.42;;
24451;SDS011;13350;50.984;5.822;2023-05-16T07:07:36;6.95;;;1.65;;
24451;SDS011;13350;50.984;5.822;2023-05-16T07:10:03;5.32;;;1.35;;
24451;SDS011;13350;50.984;5.822;2023-05-16T07:12:31;6.18;;;1.92;;
24451;SDS011;13350;50.984;5.822;2023-05-16T07:14:58;6.50;;;1.55;;
24451;SDS011;13350;50.984;5.822;2023-05-16T07:17:25;5.32;;;1.50;;
24451;SDS011;13350;50.984;5.822;2023-05-16T07:19:52;6.90;;;1.58;;
24451;SDS011;13350;50.984;5.822;2023-05-16T07:22:20;3.55;;;1.48;;
24451;SDS011;13350;50.984;5.822;2023-05-16T07:24:48;4.28;;;1.30;;
24451;SDS011;13350;50.984;5.822;2023-05-16T07:27:17;6.15;;;1.63;;
24451;SDS011;13350;50.984;5.822;2023-05-16T07:29:44;9.02;;;1.77;;
24451;SDS011;13350;50.984;5.822;2023-05-16T07:32:11;5.22;;;1.50;;
24451;SDS011;13350;50.984;5.822;2023-05-16T07:34:38;5.00;;;1.55;;
24451;SDS011;13350;50.984;5.822;2023-05-16T07:37:06;5.55;;;1.52;;
24451;SDS011;13350;50.984;5.822;2023-05-16T07:39:37;4.38;;;1.45;;
24451;SDS011;13350;50.984;5.822;2023-05-16T07:42:05;4.90;;;1.33;;
24451;SDS011;13350;50.984;5.822;2023-05-16T07:44:33;5.05;;;1.38;;
24451;SDS011;13350;50.984;5.822;2023-05-16T07:47:01;5.57;;;1.58;;
24451;SDS011;13350;50.984;5.822;2023-05-16T07:49:28;5.03;;;1.70;;
24451;SDS011;13350;50.984;5.822;2023-05-16T07:51:55;5.40;;;1.70;;
24451;SDS011;13350;50.984;5.822;2023-05-16T07:54:22;4.57;;;1.13;;
24451;SDS011;13350;50.984;5.822;2023-05-16T07:56:49;3.63;;;1.50;;
24451;SDS011;13350;50.984;5.822;2023-05-16T07:59:18;5.00;;;1.73;;
24451;SDS011;13350;50.984;5.822;2023-05-16T08:01:45;4.13;;;0.93;;
24451;SDS011;13350;50.984;5.822;2023-05-16T08:04:12;4.90;;;1.67;;
24451;SDS011;13350;50.984;5.822;2023-05-16T08:06:40;4.75;;;1.60;;
24451;SDS011;13350;50.984;5.822;2023-05-16T08:09:07;4.03;;;1.10;;
24451;SDS011;13350;50.984;5.822;2023-05-16T08:11:34;4.93;;;1.23;;
24451;SDS011;13350;50.984;5.822;2023-05-16T08:14:01;10.52;;;2.88;;
24451;SDS011;13350;50.984;5.822;2023-05-16T08:16:30;8.23;;;1.58;;
24451;SDS011;13350;50.984;5.822;2023-05-16T08:18:58;9.15;;;2.92;;
24451;SDS011;13350;50.984;5.822;2023-05-16T08:21:25;6.45;;;1.92;;
24451;SDS011;13350;50.984;5.822;2023-05-16T08:23:52;4.80;;;1.30;;
24451;SDS011;13350;50.984;5.822;2023-05-16T08:26:20;7.30;;;1.20;;
24451;SDS011;13350;50.984;5.822;2023-05-16T08:28:47;5.88;;;1.25;;
24451;SDS011;13350;50.984;5.822;2023-05-16T08:31:14;4.68;;;1.10;;
24451;SDS011;13350;50.984;5.822;2023-05-16T08:33:43;4.07;;;1.30;;
24451;SDS011;13350;50.984;5.822;2023-05-16T08:36:10;4.68;;;1.10;;
24451;SDS011;13350;50.984;5.822;2023-05-16T08:38:39;4.45;;;1.10;;
24451;SDS011;13350;50.984;5.822;2023-05-16T08:41:07;6.32;;;1.20;;
24451;SDS011;13350;50.984;5.822;2023-05-16T08:43:34;3.92;;;1.20;;
24451;SDS011;13350;50.984;5.822;2023-05-16T08:46:01;4.57;;;1.20;;
24451;SDS011;13350;50.984;5.822;2023-05-16T08:48:28;4.97;;;1.10;;
24451;SDS011;13350;50.984;5.822;2023-05-16T08:50:59;3.78;;;1.10;;
24451;SDS011;13350;50.984;5.822;2023-05-16T08:53:29;5.53;;;1.10;;
24451;SDS011;13350;50.984;5.822;2023-05-16T08:56:02;5.10;;;1.00;;
24451;SDS011;13350;50.984;5.822;2023-05-16T08:58:31;3.83;;;1.30;;
24451;SDS011;13350;50.984;5.822;2023-05-16T09:00:59;3.63;;;1.05;;
24451;SDS011;13350;50.984;5.822;2023-05-16T09:03:28;4.65;;;1.10;;
24451;SDS011;13350;50.984;5.822;2023-05-16T09:05:56;4.03;;;1.10;;
24451;SDS011;13350;50.984;5.822;2023-05-16T09:08:24;3.90;;;1.00;;
24451;SDS011;13350;50.984;5.822;2023-05-16T09:10:52;3.72;;;1.20;;
24451;SDS011;13350;50.984;5.822;2023-05-16T09:13:19;3.53;;;1.10;;
24451;SDS011;13350;50.984;5.822;2023-05-16T09:15:46;3.88;;;1.08;;
24451;SDS011;13350;50.984;5.822;2023-05-16T09:18:34;3.33;;;0.88;;
24451;SDS011;13350;50.984;5.822;2023-05-16T09:21:02;2.60;;;0.80;;
24451;SDS011;13350;50.984;5.822;2023-05-16T09:23:31;3.80;;;0.90;;
24451;SDS011;13350;50.984;5.822;2023-05-16T09:25:58;4.28;;;1.23;;
24451;SDS011;13350;50.984;5.822;2023-05-16T09:28:26;5.72;;;1.15;;
24451;SDS011;13350;50.984;5.822;2023-05-16T09:30:53;5.35;;;1.20;;
24451;SDS011;13350;50.984;5.822;2023-05-16T09:33:23;2.85;;;1.10;;
24451;SDS011;13350;50.984;5.822;2023-05-16T09:35:56;5.25;;;0.70;;
24451;SDS011;13350;50.984;5.822;2023-05-16T09:38:24;2.92;;;1.02;;
24451;SDS011;13350;50.984;5.822;2023-05-16T09:40:54;3.33;;;1.00;;
24451;SDS011;13350;50.984;5.822;2023-05-16T09:43:22;3.22;;;0.95;;
24451;SDS011;13350;50.984;5.822;2023-05-16T09:45:51;2.67;;;0.95;;
24451;SDS011;13350;50.984;5.822;2023-05-16T09:48:19;3.47;;;1.00;;
24451;SDS011;13350;50.984;5.822;2023-05-16T09:50:48;4.25;;;0.98;;
24451;SDS011;13350;50.984;5.822;2023-05-16T09:53:23;4.55;;;1.00;;
24451;SDS011;13350;50.984;5.822;2023-05-16T09:55:59;4.45;;;1.20;;
24451;SDS011;13350;50.984;5.822;2023-05-16T09:58:32;3.70;;;1.17;;
24451;SDS011;13350;50.984;5.822;2023-05-16T10:01:00;5.25;;;1.20;;
24451;SDS011;13350;50.984;5.822;2023-05-16T10:03:28;3.65;;;0.90;;
24451;SDS011;13350;50.984;5.822;2023-05-16T10:05:56;5.68;;;1.15;;
24451;SDS011;13350;50.984;5.822;2023-05-16T10:08:24;1.95;;;0.73;;
24451;SDS011;13350;50.984;5.822;2023-05-16T10:10:52;4.72;;;0.80;;
24451;SDS011;13350;50.984;5.822;2023-05-16T10:13:23;3.50;;;0.73;;
24451;SDS011;13350;50.984;5.822;2023-05-16T10:15:55;4.25;;;0.88;;
24451;SDS011;13350;50.984;5.822;2023-05-16T10:18:25;3.35;;;0.80;;
24451;SDS011;13350;50.984;5.822;2023-05-16T10:20:56;2.20;;;0.75;;
24451;SDS011;13350;50.984;5.822;2023-05-16T10:23:28;2.38;;;0.50;;
24451;SDS011;13350;50.984;5.822;2023-05-16T10:25:56;2.85;;;1.00;;
24451;SDS011;13350;50.984;5.822;2023-05-16T10:28:29;4.30;;;1.23;;
24451;SDS011;13350;50.984;5.822;2023-05-16T10:30:57;3.08;;;0.98;;
24451;SDS011;13350;50.984;5.822;2023-05-16T10:33:27;2.05;;;0.65;;
24451;SDS011;13350;50.984;5.822;2023-05-16T10:35:54;3.33;;;0.82;;
24451;SDS011;13350;50.984;5.822;2023-05-16T22:53:49;5.88;;;1.75;;
24451;SDS011;13350;50.984;5.822;2023-05-16T22:56:16;5.80;;;1.80;;
24451;SDS011;13350;50.984;5.822;2023-05-16T22:58:43;5.57;;;1.67;;
24451;SDS011;13350;50.984;5.822;2023-05-16T23:01:10;6.75;;;2.13;;
24451;SDS011;13350;50.984;5.822;2023-05-16T23:03:38;6.47;;;2.25;;
24451;SDS011;13350;50.984;5.822;2023-05-16T23:06:06;4.65;;;1.98;;
24451;SDS011;13350;50.984;5.822;2023-05-16T23:08:33;7.43;;;1.60;;
24451;SDS011;13350;50.984;5.822;2023-05-16T23:11:02;6.15;;;2.05;;
24451;SDS011;13350;50.984;5.822;2023-05-16T23:13:29;7.18;;;1.95;;
24451;SDS011;13350;50.984;5.822;2023-05-16T23:15:57;5.43;;;1.70;;
24451;SDS011;13350;50.984;5.822;2023-05-16T23:18:24;5.05;;;2.00;;
24451;SDS011;13350;50.984;5.822;2023-05-16T23:20:51;5.07;;;1.80;;
24451;SDS011;13350;50.984;5.822;2023-05-16T23:23:18;5.82;;;1.65;;
24451;SDS011;13350;50.984;5.822;2023-05-16T23:25:45;6.47;;;2.55;;
24451;SDS011;13350;50.984;5.822;2023-05-16T23:28:14;7.25;;;2.03;;
24451;SDS011;13350;50.984;5.822;2023-05-16T23:30:43;2.92;;;1.80;;
24451;SDS011;13350;50.984;5.822;2023-05-16T23:33:10;9.55;;;2.08;;
24451;SDS011;13350;50.984;5.822;2023-05-16T23:35:38;5.82;;;1.95;;
24451;SDS011;13350;50.984;5.822;2023-05-16T23:38:05;5.75;;;2.08;;
24451;SDS011;13350;50.984;5.822;2023-05-16T23:40:32;6.40;;;1.90;;
24451;SDS011;13350;50.984;5.822;2023-05-16T23:43:00;7.22;;;1.90;;
24451;SDS011;13350;50.984;5.822;2023-05-16T23:45:28;7.97;;;2.63;;
24451;SDS011;13350;50.984;5.822;2023-05-16T23:47:55;4.78;;;1.85;;
24451;SDS011;13350;50.984;5.822;2023-05-16T23:50:22;11.65;;;2.45;;
24451;SDS011;13350;50.984;5.822;2023-05-16T23:52:50;9.32;;;2.40;;
24451;SDS011;13350;50.984;5.822;2023-05-16T23:55:17;7.30;;;2.30;;
24451;SDS011;13350;50.984;5.822;2023-05-16T23:57:44;8.35;;;2.50;;
